Time;durP1;ratioP1;P1;durP2;ratioP2;P2;SDS_P1;SDS_P2;PMS_P1;PMS_P2;Temp;Humidity;BMP_temperature;BMP_pressure;BME280_temperature;BME280_humidity;BME280_pressure;Samples;Min_cycle;Max_cycle;Signal;HPM_P1;HPM_P2
2022/05/07 00:02:03;;;;;;;18.63;10.43;;;9.50;83.50;;;;;;5115989;28;20043;-78
2022/05/07 00:04:28;;;;;;;13.77;9.55;;;9.50;83.40;;;;;;5115981;28;20490;-77
2022/05/07 00:06:54;;;;;;;15.05;8.98;;;9.50;83.60;;;;;;5115698;28;20043;-76
2022/05/07 00:09:19;;;;;;;13.15;9.35;;;9.50;84.70;;;;;;5115791;28;20114;-78
2022/05/07 00:11:48;;;;;;;16.50;9.85;;;9.50;83.80;;;;;;5114522;28;20050;-77
2022/05/07 00:14:13;;;;;;;18.38;9.70;;;9.40;83.90;;;;;;5115768;28;20031;-77
2022/05/07 00:19:23;;;;;;;21.52;10.25;;;9.40;84.40;;;;;;5115791;28;20043;-77
2022/05/07 00:21:48;;;;;;;14.00;8.93;;;9.40;84.50;;;;;;5115657;28;20027;-78
2022/05/07 00:24:14;;;;;;;16.63;9.45;;;9.30;84.70;;;;;;5115641;28;20074;-77
2022/05/07 00:26:40;;;;;;;20.30;10.50;;;9.30;84.60;;;;;;5115987;28;20019;-77
2022/05/07 00:29:05;;;;;;;18.08;10.70;;;9.30;84.70;;;;;;5115976;28;20057;-77
2022/05/07 00:31:31;;;;;;;12.55;9.70;;;9.30;84.80;;;;;;5117319;28;20042;-76
2022/05/07 00:33:56;;;;;;;13.65;9.60;;;9.30;84.90;;;;;;5132265;28;20023;-77
2022/05/07 00:36:22;;;;;;;14.88;8.85;;;9.30;84.80;;;;;;5117264;28;20500;-77
2022/05/07 00:38:47;;;;;;;11.93;9.45;;;9.30;84.70;;;;;;5114889;28;20395;-77
2022/05/07 00:41:13;;;;;;;12.80;9.20;;;9.40;84.50;;;;;;5115387;28;20024;-78
2022/05/07 00:43:40;;;;;;;12.73;8.63;;;9.40;84.50;;;;;;5115000;28;20023;-76
2022/05/07 00:46:06;;;;;;;14.65;8.90;;;9.40;84.20;;;;;;5115160;28;20028;-77
2022/05/07 00:48:33;;;;;;;11.73;9.02;;;9.40;84.00;;;;;;5096590;28;20035;-76
2022/05/07 00:53:45;;;;;;;16.63;9.65;;;9.30;84.20;;;;;;5115260;28;20038;-76
2022/05/07 00:56:11;;;;;;;15.65;9.73;;;9.30;84.40;;;;;;5114903;28;20022;-77
2022/05/07 00:58:38;;;;;;;14.30;8.80;;;9.30;84.40;;;;;;5114917;28;20023;-76
2022/05/07 01:01:04;;;;;;;13.57;8.45;;;9.20;84.40;;;;;;5114975;28;20140;-77
2022/05/07 01:03:30;;;;;;;15.90;10.25;;;9.20;84.50;;;;;;5114683;28;20035;-76
2022/05/07 01:05:56;;;;;;;16.85;9.60;;;9.10;84.80;;;;;;5114610;28;20015;-77
2022/05/07 01:08:22;;;;;;;12.27;9.02;;;9.20;84.80;;;;;;5115573;28;20051;-75
2022/05/07 01:10:48;;;;;;;11.95;9.25;;;9.10;85.00;;;;;;5116639;28;20112;-77
2022/05/07 01:13:14;;;;;;;14.30;8.65;;;9.10;85.20;;;;;;5114627;28;20168;-77
2022/05/07 01:15:47;;;;;;;25.83;9.38;;;9.10;85.20;;;;;;5114515;28;20503;-78
2022/05/07 01:18:13;;;;;;;16.00;8.65;;;9.20;85.10;;;;;;5114527;28;20038;-76
2022/05/07 01:20:39;;;;;;;13.75;9.15;;;9.20;84.60;;;;;;5114539;28;20030;-77
2022/05/07 01:23:05;;;;;;;12.15;8.95;;;9.20;84.30;;;;;;5114152;28;20024;-77
2022/05/07 01:25:32;;;;;;;15.00;9.40;;;9.10;84.50;;;;;;5114366;28;20026;-77
2022/05/07 01:27:58;;;;;;;12.63;9.40;;;9.10;84.70;;;;;;5114084;28;20365;-76
2022/05/07 01:30:24;;;;;;;12.00;8.32;;;9.00;84.80;;;;;;5114364;28;20080;-77
2022/05/07 01:32:49;;;;;;;13.35;9.18;;;9.00;84.90;;;;;;5114225;28;20020;-76
2022/05/07 01:35:15;;;;;;;12.70;8.80;;;9.10;84.80;;;;;;5096031;28;20027;-77
2022/05/07 01:37:41;;;;;;;13.05;9.57;;;9.00;84.70;;;;;;5114153;28;20030;-77
2022/05/07 01:40:07;;;;;;;14.05;9.25;;;9.10;84.90;;;;;;5114228;28;20027;-77
2022/05/07 01:42:33;;;;;;;15.40;9.40;;;9.10;84.70;;;;;;5113912;28;20360;-77
2022/05/07 01:44:58;;;;;;;15.93;9.70;;;9.10;84.80;;;;;;5114073;28;20027;-77
2022/05/07 01:50:08;;;;;;;14.77;9.07;;;9.00;84.70;;;;;;5113919;28;20080;-76
2022/05/07 01:52:34;;;;;;;13.85;8.90;;;9.00;84.90;;;;;;5113761;28;20467;-76
2022/05/07 01:54:59;;;;;;;14.75;8.73;;;9.00;84.80;;;;;;5113266;28;20531;-77
2022/05/07 01:57:25;;;;;;;15.35;9.68;;;9.00;84.80;;;;;;5112544;28;20016;-79
2022/05/07 01:59:50;;;;;;;12.98;9.05;;;9.00;85.10;;;;;;5113811;28;20072;-78
2022/05/07 02:02:16;;;;;;;12.77;8.32;;;9.00;84.90;;;;;;5113742;28;20034;-77
2022/05/07 02:04:41;;;;;;;14.10;8.93;;;9.00;84.90;;;;;;5113599;28;20116;-77
2022/05/07 02:07:07;;;;;;;14.73;8.10;;;9.00;84.70;;;;;;5113590;28;20043;-76
2022/05/07 02:09:33;;;;;;;18.05;9.20;;;9.00;84.60;;;;;;5113585;28;20550;-76
2022/05/07 02:11:59;;;;;;;12.73;8.85;;;9.00;84.40;;;;;;5113589;28;20023;-77
2022/05/07 02:14:24;;;;;;;12.27;8.07;;;9.00;84.20;;;;;;5095368;28;20022;-76
2022/05/07 02:16:50;;;;;;;11.63;8.57;;;9.00;84.30;;;;;;5113512;28;20380;-77
2022/05/07 02:19:15;;;;;;;13.52;9.00;;;9.00;84.30;;;;;;5113612;28;20482;-76
2022/05/07 02:21:41;;;;;;;15.43;9.27;;;9.00;84.30;;;;;;5113520;28;20454;-77
2022/05/07 02:24:07;;;;;;;12.40;8.43;;;9.00;84.10;;;;;;5113561;28;20024;-77
2022/05/07 02:26:32;;;;;;;11.18;7.53;;;9.00;84.00;;;;;;5113531;28;20464;-76
2022/05/07 02:28:58;;;;;;;12.07;8.48;;;9.00;83.90;;;;;;5113388;28;20048;-77
2022/05/07 02:31:23;;;;;;;12.00;8.05;;;9.00;83.80;;;;;;5112043;28;20023;-77
2022/05/07 02:33:50;;;;;;;11.43;7.35;;;9.00;83.50;;;;;;5113362;28;20084;-76
2022/05/07 02:36:16;;;;;;;9.38;7.20;;;9.00;83.40;;;;;;5113375;28;20478;-76
2022/05/07 02:38:42;;;;;;;13.70;8.13;;;9.00;83.10;;;;;;5113385;28;20028;-76
2022/05/07 02:43:51;;;;;;;10.07;6.82;;;9.00;83.00;;;;;;5113464;28;20046;-75
2022/05/07 02:46:17;;;;;;;11.10;7.25;;;8.90;83.00;;;;;;5113387;28;20456;-75
2022/05/07 02:48:45;;;;;;;10.68;8.50;;;8.90;83.20;;;;;;5113119;28;20043;-74
2022/05/07 02:51:11;;;;;;;10.48;8.00;;;8.90;83.50;;;;;;5113291;28;20020;-76
2022/05/07 02:53:37;;;;;;;9.93;7.63;;;8.80;83.60;;;;;;5113255;28;20469;-76
2022/05/07 02:56:03;;;;;;;9.98;6.90;;;8.80;83.70;;;;;;5113156;28;20028;-74
2022/05/07 02:58:29;;;;;;;10.50;7.40;;;8.80;83.80;;;;;;5112919;28;20016;-74
2022/05/07 03:00:55;;;;;;;9.70;7.28;;;8.80;84.00;;;;;;5113158;28;20387;-75
2022/05/07 03:03:21;;;;;;;13.40;7.15;;;8.80;84.00;;;;;;5113057;28;20023;-76
2022/05/07 03:05:46;;;;;;;7.70;6.40;;;8.80;83.70;;;;;;5113112;28;20108;-76
2022/05/07 03:08:12;;;;;;;10.18;6.95;;;8.80;83.50;;;;;;5116808;28;20043;-76
2022/05/07 03:10:37;;;;;;;9.93;6.82;;;8.80;83.00;;;;;;5116982;28;20030;-76
2022/05/07 03:13:03;;;;;;;8.32;6.28;;;8.80;82.50;;;;;;5120346;28;20032;-74
2022/05/07 03:15:28;;;;;;;10.82;7.38;;;8.70;82.30;;;;;;5116989;28;20024;-75
2022/05/07 03:17:54;;;;;;;9.65;6.55;;;8.70;82.40;;;;;;5116877;28;20106;-76
2022/05/07 03:20:19;;;;;;;9.02;7.13;;;8.70;82.60;;;;;;5116644;28;20468;-76
2022/05/07 03:22:45;;;;;;;10.77;6.40;;;8.60;82.70;;;;;;5116754;28;20094;-76
2022/05/07 03:25:12;;;;;;;13.15;6.95;;;8.60;83.00;;;;;;5116690;28;20059;-76
2022/05/07 03:27:38;;;;;;;13.23;6.95;;;8.50;83.60;;;;;;5116506;28;20063;-75
2022/05/07 03:30:04;;;;;;;9.88;6.18;;;8.50;83.70;;;;;;5116677;28;20059;-76
2022/05/07 03:32:30;;;;;;;11.65;7.40;;;8.50;83.90;;;;;;5116626;28;20012;-74
2022/05/07 03:34:57;;;;;;;9.07;6.30;;;8.50;84.00;;;;;;5116425;28;20084;-77
2022/05/07 03:37:23;;;;;;;11.85;7.65;;;8.60;84.00;;;;;;5116476;28;20516;-77
2022/05/07 03:39:50;;;;;;;10.65;6.45;;;8.50;84.10;;;;;;5116446;28;20071;-76
2022/05/07 03:42:16;;;;;;;13.02;6.90;;;8.50;84.20;;;;;;5116174;28;20026;-75
2022/05/07 03:44:42;;;;;;;8.52;6.50;;;8.50;84.40;;;;;;5097967;28;20039;-75
2022/05/07 03:47:07;;;;;;;10.10;6.22;;;8.40;84.50;;;;;;5116482;28;20027;-76
2022/05/07 03:49:33;;;;;;;9.18;6.00;;;8.40;84.30;;;;;;5116470;28;20089;-76
2022/05/07 03:54:43;;;;;;;9.80;6.57;;;8.40;84.20;;;;;;5116434;28;20083;-76
2022/05/07 03:57:13;;;;;;;10.48;6.97;;;8.50;84.30;;;;;;5115969;28;20456;-76
2022/05/07 03:59:39;;;;;;;11.57;6.50;;;8.40;84.20;;;;;;5115977;28;20039;-75
2022/05/07 04:02:04;;;;;;;11.60;6.97;;;8.40;84.30;;;;;;5115938;28;20032;-76
2022/05/07 04:04:30;;;;;;;9.60;6.50;;;8.40;84.20;;;;;;5115897;28;20035;-76
2022/05/07 04:06:55;;;;;;;10.57;7.18;;;8.40;84.00;;;;;;5097323;28;20130;-75
2022/05/07 04:09:21;;;;;;;9.50;6.65;;;8.30;84.10;;;;;;5115757;28;20035;-75
2022/05/07 04:11:46;;;;;;;8.82;6.20;;;8.30;84.20;;;;;;5115723;28;20065;-77
2022/05/07 04:14:12;;;;;;;8.82;6.60;;;8.30;84.20;;;;;;5115861;28;20569;-76
2022/05/07 04:16:37;;;;;;;10.77;7.05;;;8.40;84.20;;;;;;5115488;28;20032;-76
2022/05/07 04:19:03;;;;;;;12.63;6.53;;;8.40;84.10;;;;;;5115613;28;20059;-76
2022/05/07 04:21:29;;;;;;;14.00;6.70;;;8.40;84.20;;;;;;5115516;28;20447;-73
2022/05/07 04:23:54;;;;;;;8.13;5.97;;;8.40;83.80;;;;;;5115397;28;20699;-73
2022/05/07 04:26:20;;;;;;;9.90;5.93;;;8.40;83.80;;;;;;5115534;28;20043;-73
2022/05/07 04:28:45;;;;;;;11.13;6.88;;;8.50;83.60;;;;;;5115265;28;20087;-73
2022/05/07 04:31:11;;;;;;;12.43;7.30;;;8.40;83.50;;;;;;5115325;28;20024;-73
2022/05/07 04:33:37;;;;;;;13.52;6.85;;;8.40;83.40;;;;;;5115090;28;20028;-73
2022/05/07 04:36:02;;;;;;;13.95;6.90;;;8.30;83.90;;;;;;5113859;28;20429;-73
2022/05/07 04:38:28;;;;;;;9.55;6.43;;;8.30;84.40;;;;;;5114764;28;20038;-71
2022/05/07 04:40:54;;;;;;;9.18;5.95;;;8.20;84.30;;;;;;5114641;28;20080;-73
2022/05/07 04:43:21;;;;;;;8.07;6.63;;;8.30;84.50;;;;;;5114972;28;20020;-72
2022/05/07 04:45:47;;;;;;;7.40;5.63;;;8.30;84.60;;;;;;5114953;28;20558;-73
2022/05/07 04:48:12;;;;;;;7.93;5.50;;;8.40;84.40;;;;;;5115094;28;20020;-76
2022/05/07 04:50:38;;;;;;;17.88;6.90;;;8.40;84.00;;;;;;5115048;28;20031;-73
2022/05/07 04:53:05;;;;;;;9.25;6.50;;;8.50;83.10;;;;;;5114970;28;20027;-76
2022/05/07 04:55:31;;;;;;;9.43;6.05;;;8.50;82.90;;;;;;5114903;28;20106;-75
2022/05/07 04:57:57;;;;;;;10.23;6.40;;;8.40;83.00;;;;;;5114956;28;20015;-76
2022/05/07 05:00:23;;;;;;;8.20;5.93;;;8.50;83.20;;;;;;5114788;28;20020;-73
2022/05/07 05:02:48;;;;;;;7.60;6.25;;;8.50;83.40;;;;;;5114809;28;20031;-74
2022/05/07 05:05:14;;;;;;;9.13;5.40;;;8.50;83.40;;;;;;5114923;28;20027;-77
2022/05/07 05:07:39;;;;;;;9.55;5.88;;;8.60;83.40;;;;;;5114418;28;20077;-73
2022/05/07 05:10:05;;;;;;;13.73;6.25;;;8.60;83.10;;;;;;5114822;28;20027;-76
2022/05/07 05:12:32;;;;;;;8.07;5.57;;;8.60;83.00;;;;;;5114448;28;20023;-73
2022/05/07 05:17:30;;;;;;;7.00;5.30;;;8.70;82.90;;;;;;5114497;28;20524;-76
2022/05/07 05:19:56;;;;;;;12.07;5.63;;;8.70;82.70;;;;;;5114493;28;20027;-73
2022/05/07 05:22:22;;;;;;;7.82;5.50;;;8.80;82.40;;;;;;5114619;28;20072;-77
2022/05/07 05:24:47;;;;;;;6.25;5.00;;;8.90;82.30;;;;;;5114420;28;20491;-73
2022/05/07 05:27:13;;;;;;;9.20;5.60;;;9.00;82.10;;;;;;5114524;28;20028;-73
2022/05/07 05:29:39;;;;;;;9.60;5.35;;;9.10;81.80;;;;;;5113782;28;20076;-73
2022/05/07 05:32:05;;;;;;;9.40;5.00;;;9.20;81.50;;;;;;5125776;28;20023;-72
2022/05/07 05:34:31;;;;;;;14.82;5.13;;;9.30;81.20;;;;;;5138744;28;20079;-72
2022/05/07 05:36:57;;;;;;;8.55;5.70;;;9.40;80.70;;;;;;5138876;28;20033;-76
2022/05/07 05:39:22;;;;;;;13.45;5.53;;;9.50;80.50;;;;;;5138192;28;20031;-74
2022/05/07 05:41:48;;;;;;;7.20;5.30;;;9.60;80.40;;;;;;5136784;28;20024;-74
2022/05/07 05:44:13;;;;;;;8.73;5.00;;;9.70;79.90;;;;;;5138175;28;20039;-74
2022/05/07 05:46:39;;;;;;;10.25;5.38;;;9.70;80.00;;;;;;5136607;28;20019;-77
2022/05/07 05:49:04;;;;;;;7.65;5.13;;;9.90;79.80;;;;;;5134938;28;20035;-75
2022/05/07 05:51:30;;;;;;;10.57;5.30;;;10.00;79.60;;;;;;5116371;28;20031;-76
2022/05/07 05:53:56;;;;;;;8.38;5.47;;;10.20;79.60;;;;;;5115461;28;20019;-73
2022/05/07 05:56:21;;;;;;;11.65;5.80;;;10.30;79.10;;;;;;5113878;28;20037;-75
2022/05/07 05:58:47;;;;;;;9.73;6.38;;;10.40;78.70;;;;;;5116238;28;20092;-77
2022/05/07 06:01:13;;;;;;;8.00;5.00;;;10.40;78.30;;;;;;5117556;28;20027;-74
2022/05/07 06:03:39;;;;;;;8.30;5.00;;;10.50;78.20;;;;;;5115550;28;20485;-74
2022/05/07 06:06:04;;;;;;;14.10;4.63;;;10.60;78.00;;;;;;5114774;28;20059;-78
2022/05/07 06:08:30;;;;;;;6.18;4.65;;;10.80;77.80;;;;;;5113700;28;20114;-77
2022/05/07 06:10:57;;;;;;;7.47;4.90;;;11.00;77.40;;;;;;5113553;28;20048;-77
2022/05/07 06:13:24;;;;;;;6.72;5.38;;;11.10;77.00;;;;;;5113580;28;20024;-74
2022/05/07 06:15:54;;;;;;;10.43;5.95;;;11.30;76.50;;;;;;5113567;28;20023;-78
2022/05/07 06:18:21;;;;;;;12.98;6.68;;;11.30;75.80;;;;;;5113626;28;20065;-78
2022/05/07 06:20:48;;;;;;;11.07;6.60;;;11.50;75.50;;;;;;5113169;28;20023;-78
2022/05/07 06:23:15;;;;;;;9.02;5.93;;;11.50;75.20;;;;;;5113265;28;20031;-79
2022/05/07 06:28:25;;;;;;;8.48;6.22;;;11.80;75.60;;;;;;5113495;28;20039;-73
2022/05/07 06:30:52;;;;;;;8.32;6.07;;;11.80;74.80;;;;;;5112998;28;20019;-77
2022/05/07 06:33:18;;;;;;;8.80;6.72;;;11.90;75.10;;;;;;5113232;28;20507;-77
2022/05/07 06:35:44;;;;;;;7.60;5.60;;;12.00;74.80;;;;;;5113424;28;20028;-75
2022/05/07 06:38:10;;;;;;;10.13;5.35;;;11.90;74.70;;;;;;5094838;28;20156;-76
2022/05/07 06:40:38;;;;;;;12.52;6.90;;;12.00;74.80;;;;;;5096560;28;20427;-74
2022/05/07 06:43:05;;;;;;;13.40;7.00;;;12.00;75.40;;;;;;5099005;28;20077;-73
2022/05/07 06:45:32;;;;;;;12.30;6.38;;;12.00;75.50;;;;;;5100010;28;20107;-73
2022/05/07 06:47:57;;;;;;;10.27;7.22;;;12.10;76.10;;;;;;5099988;28;20070;-73
2022/05/07 06:50:23;;;;;;;10.57;8.52;;;12.10;75.60;;;;;;5099366;28;20051;-71
2022/05/07 06:52:49;;;;;;;16.45;8.73;;;12.20;75.50;;;;;;5099877;28;20069;-72
2022/05/07 06:55:17;;;;;;;15.45;9.13;;;12.20;75.00;;;;;;5099238;28;20032;-75
2022/05/07 06:57:44;;;;;;;14.82;9.20;;;12.10;75.60;;;;;;5099828;28;20508;-73
2022/05/07 07:00:12;;;;;;;10.05;8.05;;;12.10;75.60;;;;;;5100357;28;20023;-73
2022/05/07 07:02:38;;;;;;;11.00;7.82;;;12.20;75.40;;;;;;5098926;28;20046;-74
2022/05/07 07:05:04;;;;;;;13.80;7.45;;;12.20;75.10;;;;;;5098952;28;20042;-74
2022/05/07 07:07:31;;;;;;;9.02;7.68;;;12.30;75.20;;;;;;5098257;28;20122;-73
2022/05/07 07:09:57;;;;;;;10.63;8.32;;;12.40;75.30;;;;;;5098618;28;20031;-75
2022/05/07 07:12:23;;;;;;;21.75;10.65;;;12.30;74.40;;;;;;5098306;28;20020;-72
2022/05/07 07:14:49;;;;;;;20.30;13.20;;;12.20;74.30;;;;;;5098590;28;20059;-73
2022/05/07 07:17:17;;;;;;;23.00;12.43;;;12.20;74.40;;;;;;5098474;28;20047;-73
2022/05/07 07:19:46;;;;;;;14.55;10.50;;;12.10;74.70;;;;;;5098108;28;20019;-73
2022/05/07 07:22:13;;;;;;;16.30;10.73;;;12.20;73.50;;;;;;5098346;28;20519;-73
2022/05/07 07:24:39;;;;;;;23.45;12.10;;;12.20;72.60;;;;;;5098116;28;20032;-73
2022/05/07 07:27:05;;;;;;;14.95;9.98;;;12.20;72.70;;;;;;5098091;28;20034;-73
2022/05/07 07:29:31;;;;;;;16.42;10.40;;;12.20;72.30;;;;;;5098280;28;20035;-72
2022/05/07 07:31:57;;;;;;;19.90;9.45;;;12.40;72.10;;;;;;5116216;28;20103;-71
2022/05/07 07:34:23;;;;;;;11.73;8.07;;;12.70;78.90;;;;;;5116350;28;20103;-72
2022/05/07 07:36:52;;;;;;;12.50;8.32;;;12.90;74.30;;;;;;5115913;28;20035;-71
2022/05/07 07:39:18;;;;;;;13.60;6.93;;;13.10;71.50;;;;;;5116052;28;20023;-71
2022/05/07 07:41:44;;;;;;;13.95;8.60;;;13.30;70.00;;;;;;5115675;28;20023;-71
2022/05/07 07:44:10;;;;;;;13.80;7.60;;;13.40;67.80;;;;;;5115971;28;20035;-71
2022/05/07 07:49:21;;;;;;;12.75;7.53;;;13.80;66.90;;;;;;5115931;28;20043;-70
2022/05/07 07:51:47;;;;;;;9.68;7.65;;;14.00;67.30;;;;;;5096545;28;20379;-71
2022/05/07 07:54:14;;;;;;;9.48;6.55;;;14.30;66.40;;;;;;5115822;28;20020;-71
2022/05/07 07:56:39;;;;;;;15.35;6.70;;;14.70;65.00;;;;;;5115735;28;20036;-71
2022/05/07 07:59:05;;;;;;;14.15;8.30;;;15.00;63.60;;;;;;5115600;28;20098;-70
2022/05/07 08:01:31;;;;;;;14.77;7.53;;;15.20;62.70;;;;;;5115666;28;20102;-71
2022/05/07 08:03:56;;;;;;;11.18;6.75;;;15.30;62.40;;;;;;5115788;28;20035;-70
2022/05/07 08:06:22;;;;;;;10.20;6.72;;;15.40;62.50;;;;;;5115817;28;20084;-70
2022/05/07 08:11:41;;;;;;;9.05;6.38;;;15.60;61.80;;;;;;5115770;28;20134;-71
2022/05/07 08:14:13;;;;;;;10.23;6.67;;;15.80;61.30;;;;;;5115533;28;20494;-71
2022/05/07 08:16:39;;;;;;;11.43;8.05;;;15.80;61.70;;;;;;5097006;28;20091;-73
2022/05/07 08:19:06;;;;;;;12.82;8.07;;;15.80;61.80;;;;;;5096765;28;20024;-75
2022/05/07 08:21:32;;;;;;;13.32;7.47;;;15.70;63.70;;;;;;5115352;28;20031;-74
2022/05/07 08:23:59;;;;;;;11.75;8.13;;;15.50;63.90;;;;;;5097269;28;20104;-75
2022/05/07 08:26:25;;;;;;;15.48;8.63;;;15.40;64.00;;;;;;5097149;28;20036;-74
2022/05/07 08:28:52;;;;;;;14.25;8.05;;;15.00;65.60;;;;;;5096856;28;20036;-75
2022/05/07 08:31:21;;;;;;;13.52;8.18;;;15.10;67.60;;;;;;5097281;28;20020;-75
2022/05/07 08:33:48;;;;;;;15.60;8.90;;;15.10;67.40;;;;;;5096682;28;20020;-75
2022/05/07 08:36:14;;;;;;;10.05;7.63;;;15.00;66.00;;;;;;5096789;28;20032;-75
2022/05/07 08:38:40;;;;;;;13.05;8.15;;;15.10;66.90;;;;;;5096810;28;20032;-75
2022/05/07 08:41:06;;;;;;;10.05;7.55;;;15.10;67.00;;;;;;5097059;28;20425;-75
2022/05/07 08:43:41;;;;;;;10.10;7.82;;;15.30;66.20;;;;;;5096724;28;20028;-75
2022/05/07 08:46:16;;;;;;;15.33;9.60;;;15.40;64.80;;;;;;5096517;28;20020;-75
2022/05/07 08:48:43;;;;;;;16.00;9.40;;;15.70;64.70;;;;;;5096693;28;20031;-75
2022/05/07 08:51:09;;;;;;;14.13;9.70;;;15.80;65.10;;;;;;5096492;28;20024;-75
2022/05/07 08:53:35;;;;;;;19.13;11.13;;;16.00;64.90;;;;;;5113420;28;20028;-76
2022/05/07 08:56:02;;;;;;;16.98;11.63;;;16.00;64.70;;;;;;5096369;28;20064;-75
2022/05/07 08:58:28;;;;;;;21.65;11.70;;;15.90;64.40;;;;;;5096285;28;20439;-74
2022/05/07 09:00:54;;;;;;;17.42;11.43;;;15.80;64.40;;;;;;5096334;28;20058;-75
2022/05/07 09:03:19;;;;;;;17.63;12.05;;;15.70;65.20;;;;;;5096158;28;20468;-75
2022/05/07 09:05:45;;;;;;;16.95;11.52;;;15.80;65.30;;;;;;5079518;28;20479;-75
2022/05/07 09:08:11;;;;;;;15.15;11.32;;;15.80;65.10;;;;;;5096228;28;20044;-75
2022/05/07 09:10:39;;;;;;;14.38;11.52;;;15.90;64.80;;;;;;5096333;28;20043;-75
2022/05/07 09:13:08;;;;;;;13.30;10.63;;;15.90;66.70;;;;;;5096113;28;20016;-75
2022/05/07 09:15:35;;;;;;;13.82;9.57;;;16.20;64.20;;;;;;5096190;28;20468;-76
2022/05/07 09:18:00;;;;;;;19.42;10.52;;;16.40;64.30;;;;;;5095827;28;20498;-74
2022/05/07 09:20:29;;;;;;;13.98;10.80;;;16.70;63.10;;;;;;5114056;28;20062;-75
2022/05/07 09:22:55;;;;;;;15.15;10.27;;;16.90;60.10;;;;;;5095746;28;20020;-75
2022/05/07 09:25:23;;;;;;;15.32;9.50;;;17.00;60.00;;;;;;5095733;28;20118;-75
2022/05/07 09:27:55;;;;;;;15.77;10.10;;;17.10;59.00;;;;;;5095559;28;20035;-75
2022/05/07 09:30:25;;;;;;;12.75;10.10;;;17.10;58.30;;;;;;5113025;28;20168;-75
2022/05/07 09:32:52;;;;;;;16.48;10.43;;;17.10;58.30;;;;;;5095738;28;20416;-74
2022/05/07 09:38:04;;;;;;;13.20;10.27;;;16.70;59.20;;;;;;5098685;28;20352;-74
2022/05/07 09:40:31;;;;;;;17.17;9.65;;;16.50;58.70;;;;;;5095084;28;20118;-75
2022/05/07 09:42:58;;;;;;;14.70;9.13;;;16.40;58.50;;;;;;5095844;28;20391;-75
2022/05/07 09:45:27;;;;;;;14.27;7.50;;;16.50;57.80;;;;;;5095386;28;20069;-75
2022/05/07 09:47:58;;;;;;;11.95;7.65;;;16.60;57.40;;;;;;5095165;28;20067;-75
2022/05/07 09:50:43;;;;;;;10.63;7.22;;;16.70;54.10;;;;;;5095225;28;20065;-75
2022/05/07 09:58:45;;;;;;;8.90;5.65;;;17.60;51.70;;;;;;5113674;28;20149;-76
2022/05/07 10:01:48;;;;;;;11.38;6.22;;;17.80;51.20;;;;;;5113251;28;20474;-75
2022/05/07 10:04:43;;;;;;;14.07;6.97;;;18.10;48.70;;;;;;5112037;28;20119;-75
2022/05/07 10:07:29;;;;;;;11.50;5.63;;;18.30;49.20;;;;;;5095219;28;20048;-75
2022/05/07 10:10:17;;;;;;;8.55;5.55;;;18.10;47.00;;;;;;5094771;28;20035;-75
2022/05/07 10:12:45;;;;;;;10.55;6.28;;;17.90;47.80;;;;;;5095193;28;20027;-74
2022/05/07 10:15:14;;;;;;;11.35;4.78;;;17.90;49.80;;;;;;5094955;28;20073;-74
2022/05/07 10:17:39;;;;;;;7.00;4.50;;;17.80;47.30;;;;;;5094848;28;20447;-73
2022/05/07 10:20:08;;;;;;;14.32;5.93;;;17.90;47.10;;;;;;5094639;28;20024;-74
2022/05/07 10:22:33;;;;;;;12.95;5.70;;;18.10;47.20;;;;;;5094834;28;20024;-74
2022/05/07 10:25:12;;;;;;;10.05;5.18;;;18.40;47.40;;;;;;5094798;28;20024;-74
2022/05/07 10:27:42;;;;;;;12.23;5.10;;;18.80;46.70;;;;;;5094948;28;20054;-75
2022/05/07 10:30:09;;;;;;;12.45;6.13;;;19.10;44.40;;;;;;5094918;28;20072;-75
2022/05/07 10:32:54;;;;;;;8.75;4.70;;;19.40;43.60;;;;;;5094495;28;20024;-74
2022/05/07 10:35:39;;;;;;;3.53;2.78;;;19.90;41.50;;;;;;5111585;28;20028;-75
2022/05/07 10:38:09;;;;;;;6.50;3.22;;;20.00;39.60;;;;;;5111606;28;20080;-74
2022/05/07 10:40:35;;;;;;;5.07;2.80;;;20.10;38.90;;;;;;5094744;28;20055;-75
2022/05/07 10:43:00;;;;;;;7.57;3.15;;;20.30;38.70;;;;;;5094268;28;20062;-75
2022/05/07 10:45:29;;;;;;;8.32;4.15;;;19.90;37.80;;;;;;5094753;28;20020;-74
2022/05/07 10:47:57;;;;;;;8.30;3.88;;;19.80;39.00;;;;;;5094502;28;20430;-75
2022/05/07 10:50:23;;;;;;;7.45;4.70;;;19.90;40.70;;;;;;5112957;28;20024;-75
2022/05/07 10:52:57;;;;;;;6.75;4.82;;;20.10;40.50;;;;;;5094841;28;20034;-74
2022/05/07 10:55:29;;;;;;;10.80;4.85;;;20.50;39.50;;;;;;5077683;28;20066;-74
2022/05/07 10:57:57;;;;;;;10.68;4.18;;;20.80;39.70;;;;;;5094756;28;20376;-74
2022/05/07 11:00:23;;;;;;;6.10;3.67;;;21.10;39.30;;;;;;5094546;28;20468;-74
2022/05/07 11:02:55;;;;;;;4.68;3.50;;;21.20;37.90;;;;;;5093936;28;20059;-75
2022/05/07 11:05:41;;;;;;;7.65;4.43;;;21.40;38.70;;;;;;5094321;28;20060;-74
2022/05/07 11:08:07;;;;;;;9.73;4.72;;;21.40;37.60;;;;;;5093954;28;20483;-73
2022/05/07 11:10:32;;;;;;;11.25;5.03;;;21.10;37.90;;;;;;5094498;28;20118;-72
2022/05/07 11:13:08;;;;;;;13.55;5.63;;;20.20;38.50;;;;;;5094697;28;20160;-72
2022/05/07 11:15:34;;;;;;;6.05;4.18;;;19.70;40.50;;;;;;5094356;28;20369;-72
2022/05/07 11:18:00;;;;;;;10.27;4.55;;;19.40;40.60;;;;;;5094695;28;20096;-72
2022/05/07 11:20:31;;;;;;;8.88;4.97;;;19.20;40.60;;;;;;5094188;28;20023;-72
2022/05/07 11:23:01;;;;;;;9.82;5.00;;;18.90;41.80;;;;;;5094397;28;20020;-72
2022/05/07 11:25:28;;;;;;;7.75;5.45;;;18.50;42.40;;;;;;5112658;28;20027;-72
2022/05/07 11:27:58;;;;;;;8.07;4.65;;;18.40;42.80;;;;;;5114273;28;20472;-72
2022/05/07 11:30:24;;;;;;;11.88;5.43;;;18.50;43.70;;;;;;5117111;28;20356;-72
2022/05/07 11:32:50;;;;;;;8.35;4.82;;;18.60;43.70;;;;;;5116363;28;20022;-72
2022/05/07 11:35:16;;;;;;;8.02;4.70;;;18.70;43.20;;;;;;5116327;28;20015;-72
2022/05/07 11:37:43;;;;;;;9.60;4.65;;;18.70;41.10;;;;;;5116319;28;20030;-73
2022/05/07 11:40:10;;;;;;;6.20;4.00;;;18.70;41.40;;;;;;5116103;28;20550;-72
2022/05/07 11:42:47;;;;;;;7.43;4.68;;;18.60;41.90;;;;;;5115913;28;20115;-73
2022/05/07 11:45:26;;;;;;;10.73;4.05;;;18.80;42.00;;;;;;5116110;28;20026;-73
2022/05/07 11:48:07;;;;;;;3.97;2.83;;;19.10;42.20;;;;;;5115965;28;20019;-73
2022/05/07 11:50:39;;;;;;;3.38;2.22;;;19.40;39.60;;;;;;5097648;28;20030;-73
2022/05/07 11:53:16;;;;;;;5.20;2.70;;;19.70;38.40;;;;;;5116015;28;20023;-73
2022/05/07 11:55:43;;;;;;;7.30;2.40;;;19.90;37.80;;;;;;5115793;28;20028;-73
2022/05/07 11:58:14;;;;;;;3.97;2.60;;;19.60;33.90;;;;;;5115824;28;20028;-73
2022/05/07 12:00:44;;;;;;;4.82;2.97;;;19.50;35.10;;;;;;5115666;28;20031;-72
2022/05/07 12:03:10;;;;;;;8.38;2.45;;;19.60;35.00;;;;;;5115798;28;20428;-73
2022/05/07 12:05:47;;;;;;;5.15;2.60;;;19.80;35.30;;;;;;5115743;28;20028;-73
2022/05/07 12:08:20;;;;;;;5.78;3.08;;;20.10;35.50;;;;;;5115517;28;20093;-73
2022/05/07 12:10:47;;;;;;;5.28;2.67;;;20.40;34.40;;;;;;5115668;28;20511;-73
2022/05/07 12:13:18;;;;;;;6.72;2.95;;;20.50;33.30;;;;;;5115637;28;20069;-74
2022/05/07 12:18:29;;;;;;;8.68;3.60;;;20.70;33.40;;;;;;5115238;28;20085;-73
2022/05/07 12:20:55;;;;;;;6.57;2.17;;;20.70;33.30;;;;;;5115632;28;20103;-73
2022/05/07 12:31:34;;;;;;;4.70;2.20;;;21.40;32.90;;;;;;5115736;28;20463;-73
2022/05/07 12:34:00;;;;;;;10.23;2.50;;;21.50;31.60;;;;;;5115252;28;20028;-73
2022/05/07 12:36:26;;;;;;;3.90;2.40;;;21.70;31.50;;;;;;5113823;28;20026;-73
2022/05/07 12:38:52;;;;;;;6.85;2.67;;;22.00;31.70;;;;;;5114737;28;20030;-73
2022/05/07 12:41:18;;;;;;;3.22;1.77;;;21.80;30.00;;;;;;5114863;28;20455;-73
2022/05/07 12:43:44;;;;;;;3.10;2.05;;;21.80;29.70;;;;;;5115008;28;20038;-72
2022/05/07 12:46:09;;;;;;;2.63;2.05;;;22.10;30.10;;;;;;5114930;28;20356;-72
2022/05/07 12:48:35;;;;;;;8.55;2.40;;;22.60;29.70;;;;;;5114714;28;20035;-72
2022/05/07 12:51:00;;;;;;;4.43;2.50;;;23.00;28.60;;;;;;5114648;28;20027;-72
2022/05/07 12:53:26;;;;;;;4.47;2.13;;;23.40;28.90;;;;;;5096233;28;20023;-72
2022/05/07 12:55:52;;;;;;;6.00;2.90;;;23.60;28.30;;;;;;5114336;28;20042;-72
2022/05/07 12:58:17;;;;;;;3.78;2.13;;;23.80;28.90;;;;;;5114330;28;20491;-72
2022/05/07 13:00:43;;;;;;;5.05;2.55;;;23.80;28.70;;;;;;5114160;28;20028;-72
2022/05/07 13:03:09;;;;;;;3.95;2.05;;;23.80;28.40;;;;;;5114320;28;20180;-73
2022/05/07 13:05:36;;;;;;;3.20;2.20;;;23.50;27.10;;;;;;5114269;28;20536;-72
2022/05/07 13:08:05;;;;;;;2.88;2.33;;;23.40;27.00;;;;;;5114074;28;20043;-72
2022/05/07 13:10:35;;;;;;;6.50;2.72;;;23.50;27.60;;;;;;5114472;28;20379;-73
2022/05/07 13:13:01;;;;;;;5.07;2.60;;;23.50;28.20;;;;;;5114055;28;20054;-71
2022/05/07 13:15:30;;;;;;;2.70;2.22;;;23.40;26.70;;;;;;5114454;28;20046;-72
2022/05/07 13:17:59;;;;;;;3.00;2.38;;;23.30;27.70;;;;;;5114331;28;20019;-72
2022/05/07 13:20:29;;;;;;;3.15;2.00;;;23.30;28.40;;;;;;5114258;28;20320;-72
2022/05/07 13:22:55;;;;;;;4.88;2.45;;;23.20;28.60;;;;;;5114111;28;20024;-72
2022/05/07 13:25:22;;;;;;;5.97;2.17;;;23.30;29.30;;;;;;5114020;28;20035;-72
2022/05/07 13:27:48;;;;;;;3.13;2.08;;;23.40;28.80;;;;;;5113932;28;20027;-72